sensor_id;sensor_type;location;lat;lon;timestamp;pressure;altitude;pressure_sealevel;temperature;humidity
64683;BME280;51107;47.652;19.016;2023-11-22T00:01:58;99656.03;;;3.26;100.00
64683;BME280;51107;47.652;19.016;2023-11-22T00:04:27;99661.91;;;3.28;100.00
64683;BME280;51107;47.652;19.016;2023-11-22T00:06:55;99653.97;;;3.31;100.00
64683;BME280;51107;47.652;19.016;2023-11-22T00:09:23;99655.22;;;3.26;100.00
64683;BME280;51107;47.652;19.016;2023-11-22T00:11:51;99658.81;;;3.23;100.00
64683;BME280;51107;47.652;19.016;2023-11-22T00:14:20;99654.59;;;3.22;100.00
64683;BME280;51107;47.652;19.016;2023-11-22T00:16:49;99662.53;;;3.19;100.00
64683;BME280;51107;47.652;19.016;2023-11-22T00:19:18;99665.31;;;3.16;100.00
64683;BME280;51107;47.652;19.016;2023-11-22T00:21:49;99672.84;;;3.19;100.00
64683;BME280;51107;47.652;19.016;2023-11-22T00:24:18;99673.25;;;3.13;100.00
64683;BME280;51107;47.652;19.016;2023-11-22T00:26:46;99669.84;;;3.25;100.00
64683;BME280;51107;47.652;19.016;2023-11-22T00:29:14;99672.72;;;3.20;100.00
64683;BME280;51107;47.652;19.016;2023-11-22T00:31:43;99669.00;;;3.25;100.00
64683;BME280;51107;47.652;19.016;2023-11-22T00:34:13;99672.59;;;3.22;100.00
64683;BME280;51107;47.652;19.016;2023-11-22T00:36:43;99683.56;;;3.13;100.00
64683;BME280;51107;47.652;19.016;2023-11-22T00:39:12;99691.38;;;2.98;100.00
64683;BME280;51107;47.652;19.016;2023-11-22T00:41:41;99688.91;;;2.97;100.00
64683;BME280;51107;47.652;19.016;2023-11-22T00:44:10;99678.28;;;3.01;100.00
64683;BME280;51107;47.652;19.016;2023-11-22T00:46:38;99684.47;;;2.99;100.00
64683;BME280;51107;47.652;19.016;2023-11-22T00:49:06;99681.31;;;2.95;100.00
64683;BME280;51107;47.652;19.016;2023-11-22T00:51:34;99686.97;;;3.00;100.00
64683;BME280;51107;47.652;19.016;2023-11-22T00:54:02;99692.31;;;2.84;100.00
64683;BME280;51107;47.652;19.016;2023-11-22T00:56:31;99679.25;;;2.75;100.00
64683;BME280;51107;47.652;19.016;2023-11-22T00:59:01;99685.00;;;2.65;100.00
64683;BME280;51107;47.652;19.016;2023-11-22T01:01:31;99691.47;;;2.71;100.00
64683;BME280;51107;47.652;19.016;2023-11-22T01:04:00;99678.09;;;2.66;100.00
64683;BME280;51107;47.652;19.016;2023-11-22T01:06:29;99682.44;;;2.65;100.00
64683;BME280;51107;47.652;19.016;2023-11-22T01:08:57;99687.13;;;2.46;100.00
64683;BME280;51107;47.652;19.016;2023-11-22T01:11:25;99694.84;;;2.33;100.00
64683;BME280;51107;47.652;19.016;2023-11-22T01:13:54;99684.69;;;2.44;100.00
64683;BME280;51107;47.652;19.016;2023-11-22T01:16:22;99692.88;;;2.36;100.00
64683;BME280;51107;47.652;19.016;2023-11-22T01:18:50;99683.59;;;2.34;100.00
64683;BME280;51107;47.652;19.016;2023-11-22T01:21:20;99701.72;;;2.32;100.00
64683;BME280;51107;47.652;19.016;2023-11-22T01:23:48;99693.53;;;2.13;100.00
64683;BME280;51107;47.652;19.016;2023-11-22T01:26:16;99691.53;;;1.91;100.00
64683;BME280;51107;47.652;19.016;2023-11-22T01:28:45;99698.00;;;1.69;100.00
64683;BME280;51107;47.652;19.016;2023-11-22T01:31:13;99707.56;;;1.67;100.00
64683;BME280;51107;47.652;19.016;2023-11-22T01:33:43;99700.47;;;1.70;100.00
64683;BME280;51107;47.652;19.016;2023-11-22T01:36:11;99699.31;;;1.47;100.00
64683;BME280;51107;47.652;19.016;2023-11-22T01:38:39;99705.47;;;1.30;100.00
64683;BME280;51107;47.652;19.016;2023-11-22T01:41:07;99713.91;;;1.47;100.00
64683;BME280;51107;47.652;19.016;2023-11-22T01:43:36;99708.75;;;1.61;100.00
64683;BME280;51107;47.652;19.016;2023-11-22T01:46:04;99716.41;;;1.76;100.00
64683;BME280;51107;47.652;19.016;2023-11-22T01:48:32;99715.84;;;1.85;100.00
64683;BME280;51107;47.652;19.016;2023-11-22T01:51:03;99724.38;;;1.85;100.00
64683;BME280;51107;47.652;19.016;2023-11-22T01:53:32;99728.13;;;1.94;100.00
64683;BME280;51107;47.652;19.016;2023-11-22T01:56:01;99723.69;;;1.96;100.00
64683;BME280;51107;47.652;19.016;2023-11-22T01:58:29;99729.91;;;2.07;100.00
64683;BME280;51107;47.652;19.016;2023-11-22T02:00:58;99729.53;;;2.13;100.00
64683;BME280;51107;47.652;19.016;2023-11-22T02:03:28;99737.88;;;2.16;100.00
64683;BME280;51107;47.652;19.016;2023-11-22T02:05:58;99728.94;;;2.22;100.00
64683;BME280;51107;47.652;19.016;2023-11-22T02:08:28;99734.53;;;2.29;100.00
64683;BME280;51107;47.652;19.016;2023-11-22T02:11:01;99735.97;;;2.33;100.00
64683;BME280;51107;47.652;19.016;2023-11-22T02:13:33;99738.12;;;2.39;100.00
64683;BME280;51107;47.652;19.016;2023-11-22T02:16:02;99737.13;;;2.42;100.00
64683;BME280;51107;47.652;19.016;2023-11-22T02:18:31;99736.00;;;2.46;100.00
64683;BME280;51107;47.652;19.016;2023-11-22T02:21:00;99736.31;;;2.41;100.00
64683;BME280;51107;47.652;19.016;2023-11-22T02:23:28;99739.19;;;2.49;100.00
64683;BME280;51107;47.652;19.016;2023-11-22T02:25:57;99743.59;;;2.47;100.00
64683;BME280;51107;47.652;19.016;2023-11-22T02:28:26;99740.91;;;2.36;100.00
64683;BME280;51107;47.652;19.016;2023-11-22T02:30:55;99740.91;;;2.36;100.00
64683;BME280;51107;47.652;19.016;2023-11-22T02:33:23;99758.25;;;2.32;100.00
64683;BME280;51107;47.652;19.016;2023-11-22T02:35:51;99759.09;;;2.33;100.00
64683;BME280;51107;47.652;19.016;2023-11-22T02:38:19;99759.63;;;2.38;100.00
64683;BME280;51107;47.652;19.016;2023-11-22T02:40:48;99759.91;;;2.33;100.00
64683;BME280;51107;47.652;19.016;2023-11-22T02:43:18;99762.59;;;2.32;100.00
64683;BME280;51107;47.652;19.016;2023-11-22T02:45:46;99761.06;;;2.42;100.00
64683;BME280;51107;47.652;19.016;2023-11-22T02:48:15;99771.66;;;2.37;100.00
64683;BME280;51107;47.652;19.016;2023-11-22T02:50:43;99767.56;;;2.48;100.00
64683;BME280;51107;47.652;19.016;2023-11-22T02:53:12;99773.69;;;2.32;100.00
64683;BME280;51107;47.652;19.016;2023-11-22T02:55:40;99777.50;;;2.40;100.00
64683;BME280;51107;47.652;19.016;2023-11-22T02:58:08;99768.53;;;2.32;100.00
64683;BME280;51107;47.652;19.016;2023-11-22T03:00:37;99773.50;;;2.35;100.00
64683;BME280;51107;47.652;19.016;2023-11-22T03:03:05;99784.81;;;2.33;100.00
64683;BME280;51107;47.652;19.016;2023-11-22T03:05:38;99788.56;;;2.27;100.00
64683;BME280;51107;47.652;19.016;2023-11-22T03:08:06;99782.25;;;2.33;100.00
64683;BME280;51107;47.652;19.016;2023-11-22T03:10:35;99792.81;;;2.28;100.00
64683;BME280;51107;47.652;19.016;2023-11-22T03:13:04;99787.03;;;2.25;100.00
64683;BME280;51107;47.652;19.016;2023-11-22T03:15:33;99797.03;;;2.29;100.00
64683;BME280;51107;47.652;19.016;2023-11-22T03:18:01;99792.47;;;2.20;100.00
64683;BME280;51107;47.652;19.016;2023-11-22T03:20:29;99788.97;;;2.21;100.00
64683;BME280;51107;47.652;19.016;2023-11-22T03:22:59;99790.72;;;2.20;100.00
64683;BME280;51107;47.652;19.016;2023-11-22T03:25:29;99793.56;;;2.16;100.00
64683;BME280;51107;47.652;19.016;2023-11-22T03:27:57;99796.63;;;2.08;100.00
64683;BME280;51107;47.652;19.016;2023-11-22T03:30:25;99786.44;;;2.07;100.00
64683;BME280;51107;47.652;19.016;2023-11-22T03:32:53;99790.38;;;2.12;100.00
64683;BME280;51107;47.652;19.016;2023-11-22T03:35:23;99798.16;;;2.11;100.00
64683;BME280;51107;47.652;19.016;2023-11-22T03:37:51;99806.38;;;2.03;100.00
64683;BME280;51107;47.652;19.016;2023-11-22T03:40:19;99802.69;;;1.93;100.00
64683;BME280;51107;47.652;19.016;2023-11-22T03:42:48;99800.97;;;1.93;100.00
64683;BME280;51107;47.652;19.016;2023-11-22T03:45:16;99807.03;;;1.92;100.00
64683;BME280;51107;47.652;19.016;2023-11-22T03:47:44;99800.88;;;1.95;100.00
64683;BME280;51107;47.652;19.016;2023-11-22T03:50:13;99811.06;;;1.96;100.00
64683;BME280;51107;47.652;19.016;2023-11-22T03:52:42;99821.34;;;1.96;100.00
64683;BME280;51107;47.652;19.016;2023-11-22T03:55:10;99824.47;;;1.87;100.00
64683;BME280;51107;47.652;19.016;2023-11-22T03:57:39;99822.72;;;1.87;100.00
64683;BME280;51107;47.652;19.016;2023-11-22T04:00:07;99822.34;;;1.94;100.00
64683;BME280;51107;47.652;19.016;2023-11-22T04:02:39;99821.06;;;1.86;100.00
64683;BME280;51107;47.652;19.016;2023-11-22T04:05:09;99813.38;;;1.86;100.00
64683;BME280;51107;47.652;19.016;2023-11-22T04:07:39;99821.53;;;1.93;100.00
64683;BME280;51107;47.652;19.016;2023-11-22T04:10:07;99827.13;;;2.00;100.00
64683;BME280;51107;47.652;19.016;2023-11-22T04:12:36;99825.75;;;1.94;100.00
64683;BME280;51107;47.652;19.016;2023-11-22T04:15:05;99831.31;;;2.01;100.00
64683;BME280;51107;47.652;19.016;2023-11-22T04:17:38;99831.97;;;2.04;100.00
64683;BME280;51107;47.652;19.016;2023-11-22T04:20:07;99835.47;;;1.89;100.00
64683;BME280;51107;47.652;19.016;2023-11-22T04:22:43;99853.00;;;1.82;100.00
64683;BME280;51107;47.652;19.016;2023-11-22T04:25:13;99851.09;;;1.86;100.00
64683;BME280;51107;47.652;19.016;2023-11-22T04:27:41;99837.75;;;1.94;100.00
64683;BME280;51107;47.652;19.016;2023-11-22T04:30:10;99840.31;;;1.94;100.00
64683;BME280;51107;47.652;19.016;2023-11-22T04:32:43;99859.97;;;1.95;100.00
64683;BME280;51107;47.652;19.016;2023-11-22T04:35:11;99849.69;;;1.95;100.00
64683;BME280;51107;47.652;19.016;2023-11-22T04:37:39;99869.25;;;1.97;100.00
64683;BME280;51107;47.652;19.016;2023-11-22T04:40:08;99857.41;;;1.95;100.00
64683;BME280;51107;47.652;19.016;2023-11-22T04:42:37;99852.09;;;1.83;100.00
64683;BME280;51107;47.652;19.016;2023-11-22T04:45:05;99859.06;;;1.81;100.00
64683;BME280;51107;47.652;19.016;2023-11-22T04:47:34;99846.94;;;1.69;100.00
64683;BME280;51107;47.652;19.016;2023-11-22T04:50:03;99857.31;;;1.67;100.00
64683;BME280;51107;47.652;19.016;2023-11-22T04:52:32;99854.56;;;1.56;100.00
64683;BME280;51107;47.652;19.016;2023-11-22T04:55:00;99865.25;;;1.34;100.00
64683;BME280;51107;47.652;19.016;2023-11-22T04:57:29;99865.69;;;1.26;100.00
64683;BME280;51107;47.652;19.016;2023-11-22T04:59:57;99868.62;;;1.20;100.00
64683;BME280;51107;47.652;19.016;2023-11-22T05:02:25;99874.59;;;0.90;100.00
64683;BME280;51107;47.652;19.016;2023-11-22T05:04:54;99870.66;;;0.99;100.00
64683;BME280;51107;47.652;19.016;2023-11-22T05:07:25;99863.53;;;1.04;100.00
64683;BME280;51107;47.652;19.016;2023-11-22T05:09:53;99875.25;;;1.24;100.00
64683;BME280;51107;47.652;19.016;2023-11-22T05:12:22;99867.34;;;1.27;100.00
64683;BME280;51107;47.652;19.016;2023-11-22T05:14:50;99874.97;;;1.29;100.00
64683;BME280;51107;47.652;19.016;2023-11-22T05:17:18;99883.75;;;1.25;100.00
64683;BME280;51107;47.652;19.016;2023-11-22T05:19:47;99883.56;;;1.28;100.00
64683;BME280;51107;47.652;19.016;2023-11-22T05:22:15;99894.41;;;1.33;100.00
64683;BME280;51107;47.652;19.016;2023-11-22T05:24:43;99903.00;;;1.32;100.00
64683;BME280;51107;47.652;19.016;2023-11-22T05:27:11;99905.50;;;1.33;100.00
64683;BME280;51107;47.652;19.016;2023-11-22T05:29:40;99912.56;;;1.30;100.00
64683;BME280;51107;47.652;19.016;2023-11-22T05:32:20;99923.38;;;1.35;100.00
64683;BME280;51107;47.652;19.016;2023-11-22T05:34:48;99925.69;;;1.40;100.00
64683;BME280;51107;47.652;19.016;2023-11-22T05:37:16;99923.03;;;1.41;100.00
64683;BME280;51107;47.652;19.016;2023-11-22T05:39:44;99927.69;;;1.34;100.00
64683;BME280;51107;47.652;19.016;2023-11-22T05:42:13;99927.69;;;1.34;100.00
64683;BME280;51107;47.652;19.016;2023-11-22T05:44:43;99923.72;;;1.29;100.00
64683;BME280;51107;47.652;19.016;2023-11-22T05:47:13;99916.41;;;1.37;100.00
64683;BME280;51107;47.652;19.016;2023-11-22T05:49:41;99931.34;;;1.30;100.00
64683;BME280;51107;47.652;19.016;2023-11-22T05:52:09;99931.16;;;1.33;100.00
64683;BME280;51107;47.652;19.016;2023-11-22T05:54:38;99937.31;;;1.31;100.00
64683;BME280;51107;47.652;19.016;2023-11-22T05:57:06;99933.56;;;1.37;100.00
64683;BME280;51107;47.652;19.016;2023-11-22T05:59:34;99946.41;;;1.37;100.00
64683;BME280;51107;47.652;19.016;2023-11-22T06:02:02;99940.00;;;1.44;100.00
64683;BME280;51107;47.652;19.016;2023-11-22T06:04:31;99951.69;;;1.33;100.00
64683;BME280;51107;47.652;19.016;2023-11-22T06:07:01;99944.38;;;1.42;100.00
64683;BME280;51107;47.652;19.016;2023-11-22T06:09:29;99953.31;;;1.50;100.00
64683;BME280;51107;47.652;19.016;2023-11-22T06:11:58;99958.44;;;1.50;100.00
64683;BME280;51107;47.652;19.016;2023-11-22T06:14:26;99955.41;;;1.44;100.00
64683;BME280;51107;47.652;19.016;2023-11-22T06:16:54;99955.69;;;1.53;100.00
64683;BME280;51107;47.652;19.016;2023-11-22T06:19:22;99951.22;;;1.57;100.00
64683;BME280;51107;47.652;19.016;2023-11-22T06:21:51;99965.38;;;1.34;100.00
64683;BME280;51107;47.652;19.016;2023-11-22T06:24:19;99979.38;;;1.28;100.00
64683;BME280;51107;47.652;19.016;2023-11-22T06:26:48;99982.78;;;1.13;100.00
64683;BME280;51107;47.652;19.016;2023-11-22T06:29:17;99983.13;;;1.07;100.00
64683;BME280;51107;47.652;19.016;2023-11-22T06:31:45;99980.81;;;1.02;100.00
64683;BME280;51107;47.652;19.016;2023-11-22T06:34:14;99981.88;;;1.14;100.00
64683;BME280;51107;47.652;19.016;2023-11-22T06:36:42;99984.50;;;1.28;100.00
64683;BME280;51107;47.652;19.016;2023-11-22T06:39:11;99995.19;;;1.37;100.00
64683;BME280;51107;47.652;19.016;2023-11-22T06:41:41;100001.94;;;1.38;100.00
64683;BME280;51107;47.652;19.016;2023-11-22T06:44:10;100011.38;;;1.53;100.00
64683;BME280;51107;47.652;19.016;2023-11-22T06:46:38;100011.50;;;1.66;100.00
64683;BME280;51107;47.652;19.016;2023-11-22T06:49:06;100006.84;;;1.73;100.00
64683;BME280;51107;47.652;19.016;2023-11-22T06:51:35;100028.00;;;1.76;100.00
64683;BME280;51107;47.652;19.016;2023-11-22T06:54:03;100029.44;;;1.82;100.00
64683;BME280;51107;47.652;19.016;2023-11-22T06:56:31;100030.16;;;1.84;100.00
64683;BME280;51107;47.652;19.016;2023-11-22T06:59:00;100028.88;;;1.91;100.00
64683;BME280;51107;47.652;19.016;2023-11-22T07:01:28;100020.94;;;1.96;100.00
64683;BME280;51107;47.652;19.016;2023-11-22T07:03:57;100034.16;;;2.04;100.00
64683;BME280;51107;47.652;19.016;2023-11-22T07:06:27;100034.06;;;2.06;100.00
64683;BME280;51107;47.652;19.016;2023-11-22T07:08:55;100036.63;;;2.06;100.00
64683;BME280;51107;47.652;19.016;2023-11-22T07:11:24;100052.06;;;2.06;100.00
64683;BME280;51107;47.652;19.016;2023-11-22T07:13:53;100056.81;;;2.12;100.00
64683;BME280;51107;47.652;19.016;2023-11-22T07:16:21;100046.91;;;2.20;100.00
64683;BME280;51107;47.652;19.016;2023-11-22T07:18:50;100055.00;;;2.14;100.00
64683;BME280;51107;47.652;19.016;2023-11-22T07:21:18;100049.69;;;2.17;100.00
64683;BME280;51107;47.652;19.016;2023-11-22T07:23:48;100057.28;;;2.18;100.00
64683;BME280;51107;47.652;19.016;2023-11-22T07:26:20;100065.28;;;2.28;100.00
64683;BME280;51107;47.652;19.016;2023-11-22T07:28:48;100066.28;;;2.26;100.00
64683;BME280;51107;47.652;19.016;2023-11-22T07:31:17;100055.75;;;2.45;100.00
64683;BME280;51107;47.652;19.016;2023-11-22T07:33:45;100066.03;;;2.45;100.00
64683;BME280;51107;47.652;19.016;2023-11-22T07:36:16;100063.59;;;2.58;100.00
64683;BME280;51107;47.652;19.016;2023-11-22T07:38:45;100058.78;;;2.66;100.00
64683;BME280;51107;47.652;19.016;2023-11-22T07:41:13;100062.16;;;2.81;100.00
64683;BME280;51107;47.652;19.016;2023-11-22T07:43:41;100059.78;;;2.92;100.00
64683;BME280;51107;47.652;19.016;2023-11-22T07:46:10;100058.06;;;3.20;100.00
64683;BME280;51107;47.652;19.016;2023-11-22T07:48:42;100061.84;;;3.42;100.00
64683;BME280;51107;47.652;19.016;2023-11-22T07:51:11;100067.94;;;3.68;100.00
64683;BME280;51107;47.652;19.016;2023-11-22T07:53:40;100074.78;;;3.82;100.00
64683;BME280;51107;47.652;19.016;2023-11-22T07:56:09;100079.41;;;3.89;100.00
64683;BME280;51107;47.652;19.016;2023-11-22T07:58:38;100082.50;;;3.95;100.00
64683;BME280;51107;47.652;19.016;2023-11-22T08:01:06;100079.25;;;4.05;100.00
64683;BME280;51107;47.652;19.016;2023-11-22T08:03:41;100089.56;;;4.18;100.00
64683;BME280;51107;47.652;19.016;2023-11-22T08:06:16;100089.97;;;4.25;100.00
64683;BME280;51107;47.652;19.016;2023-11-22T08:08:44;100090.81;;;4.38;100.00
64683;BME280;51107;47.652;19.016;2023-11-22T08:11:14;100095.03;;;4.65;100.00
64683;BME280;51107;47.652;19.016;2023-11-22T08:13:43;100096.47;;;4.82;100.00
64683;BME280;51107;47.652;19.016;2023-11-22T08:16:13;100113.78;;;4.93;100.00
64683;BME280;51107;47.652;19.016;2023-11-22T08:18:41;100106.72;;;5.21;100.00
64683;BME280;51107;47.652;19.016;2023-11-22T08:21:11;100097.16;;;5.34;100.00
64683;BME280;51107;47.652;19.016;2023-11-22T08:23:40;100111.13;;;5.56;100.00
64683;BME280;51107;47.652;19.016;2023-11-22T08:26:08;100102.81;;;5.88;100.00
64683;BME280;51107;47.652;19.016;2023-11-22T08:28:37;100117.22;;;6.03;100.00
64683;BME280;51107;47.652;19.016;2023-11-22T08:31:06;100112.56;;;6.08;100.00
64683;BME280;51107;47.652;19.016;2023-11-22T08:33:39;100121.13;;;6.56;100.00
64683;BME280;51107;47.652;19.016;2023-11-22T08:36:08;100126.22;;;6.22;100.00
64683;BME280;51107;47.652;19.016;2023-11-22T08:38:37;100136.06;;;6.63;100.00
64683;BME280;51107;47.652;19.016;2023-11-22T08:41:13;100128.53;;;6.49;100.00
64683;BME280;51107;47.652;19.016;2023-11-22T08:43:42;100134.38;;;6.40;100.00
64683;BME280;51107;47.652;19.016;2023-11-22T08:46:10;100134.22;;;6.19;100.00
64683;BME280;51107;47.652;19.016;2023-11-22T08:48:42;100141.72;;;6.10;100.00
64683;BME280;51107;47.652;19.016;2023-11-22T08:51:11;100143.69;;;6.07;100.00
64683;BME280;51107;47.652;19.016;2023-11-22T08:53:40;100144.16;;;6.01;100.00
64683;BME280;51107;47.652;19.016;2023-11-22T08:56:11;100146.28;;;6.54;100.00
64683;BME280;51107;47.652;19.016;2023-11-22T08:58:39;100147.88;;;6.90;100.00
64683;BME280;51107;47.652;19.016;2023-11-22T09:01:08;100138.41;;;7.12;100.00
64683;BME280;51107;47.652;19.016;2023-11-22T09:03:37;100148.44;;;7.17;100.00
64683;BME280;51107;47.652;19.016;2023-11-22T09:06:06;100150.09;;;7.29;100.00
64683;BME280;51107;47.652;19.016;2023-11-22T09:08:36;100137.19;;;7.50;100.00
64683;BME280;51107;47.652;19.016;2023-11-22T09:11:04;100143.09;;;7.85;100.00
64683;BME280;51107;47.652;19.016;2023-11-22T09:13:35;100146.34;;;8.52;99.08
64683;BME280;51107;47.652;19.016;2023-11-22T09:16:04;100139.91;;;9.08;95.31
64683;BME280;51107;47.652;19.016;2023-11-22T09:18:33;100139.69;;;9.30;93.90
64683;BME280;51107;47.652;19.016;2023-11-22T09:21:02;100130.78;;;9.33;92.01
64683;BME280;51107;47.652;19.016;2023-11-22T09:23:30;100137.56;;;9.14;91.77
64683;BME280;51107;47.652;19.016;2023-11-22T09:25:59;100143.16;;;9.70;91.21
64683;BME280;51107;47.652;19.016;2023-11-22T09:28:29;100130.84;;;9.82;92.38
64683;BME280;51107;47.652;19.016;2023-11-22T09:30:57;100132.34;;;9.84;90.21
64683;BME280;51107;47.652;19.016;2023-11-22T09:33:34;100127.56;;;9.80;86.79
64683;BME280;51107;47.652;19.016;2023-11-22T09:36:02;100130.72;;;10.03;86.44
64683;BME280;51107;47.652;19.016;2023-11-22T09:38:37;100136.47;;;10.36;83.85
64683;BME280;51107;47.652;19.016;2023-11-22T09:41:06;100146.50;;;10.68;81.36
64683;BME280;51107;47.652;19.016;2023-11-22T09:43:36;100143.53;;;11.01;85.10
64683;BME280;51107;47.652;19.016;2023-11-22T09:46:08;100149.53;;;10.74;80.30
64683;BME280;51107;47.652;19.016;2023-11-22T09:48:41;100139.88;;;10.84;80.51
64683;BME280;51107;47.652;19.016;2023-11-22T09:53:58;100144.12;;;10.85;80.91
64683;BME280;51107;47.652;19.016;2023-11-22T09:56:33;100147.81;;;10.82;79.02
64683;BME280;51107;47.652;19.016;2023-11-22T09:59:06;100145.63;;;10.87;77.96
64683;BME280;51107;47.652;19.016;2023-11-22T10:01:35;100148.47;;;11.22;78.00
64683;BME280;51107;47.652;19.016;2023-11-22T10:04:07;100150.47;;;11.10;79.78
64683;BME280;51107;47.652;19.016;2023-11-22T10:06:35;100147.38;;;11.25;78.23
64683;BME280;51107;47.652;19.016;2023-11-22T10:09:04;100153.66;;;11.32;77.61
64683;BME280;51107;47.652;19.016;2023-11-22T10:11:37;100149.22;;;11.60;74.65
64683;BME280;51107;47.652;19.016;2023-11-22T10:14:08;100154.03;;;11.37;73.42
64683;BME280;51107;47.652;19.016;2023-11-22T10:16:37;100146.88;;;11.39;76.49
64683;BME280;51107;47.652;19.016;2023-11-22T10:19:05;100143.38;;;11.48;78.08
64683;BME280;51107;47.652;19.016;2023-11-22T10:21:34;100152.91;;;10.84;74.44
64683;BME280;51107;47.652;19.016;2023-11-22T10:24:03;100156.06;;;11.15;77.50
64683;BME280;51107;47.652;19.016;2023-11-22T10:26:33;100166.84;;;11.30;77.75
64683;BME280;51107;47.652;19.016;2023-11-22T10:29:03;100165.63;;;11.25;74.02
64683;BME280;51107;47.652;19.016;2023-11-22T10:31:33;100170.56;;;11.28;75.80
64683;BME280;51107;47.652;19.016;2023-11-22T10:34:02;100170.72;;;11.44;74.20
64683;BME280;51107;47.652;19.016;2023-11-22T10:36:32;100177.06;;;11.42;77.37
64683;BME280;51107;47.652;19.016;2023-11-22T10:39:00;100185.47;;;11.35;70.88
64683;BME280;51107;47.652;19.016;2023-11-22T10:41:31;100189.41;;;11.21;69.58
64683;BME280;51107;47.652;19.016;2023-11-22T10:44:00;100191.84;;;11.23;69.15
64683;BME280;51107;47.652;19.016;2023-11-22T10:46:29;100194.69;;;11.02;72.38
64683;BME280;51107;47.652;19.016;2023-11-22T10:48:58;100196.44;;;11.11;75.55
64683;BME280;51107;47.652;19.016;2023-11-22T10:51:31;100193.44;;;11.06;73.34
64683;BME280;51107;47.652;19.016;2023-11-22T10:54:01;100200.38;;;10.78;70.41
64683;BME280;51107;47.652;19.016;2023-11-22T10:56:39;100202.53;;;11.02;73.12
64683;BME280;51107;47.652;19.016;2023-11-22T10:59:11;100207.09;;;11.18;71.29
64683;BME280;51107;47.652;19.016;2023-11-22T11:01:45;100215.47;;;11.21;71.96
64683;BME280;51107;47.652;19.016;2023-11-22T11:04:24;100211.50;;;11.17;72.36
64683;BME280;51107;47.652;19.016;2023-11-22T11:06:55;100223.94;;;10.96;71.18
64683;BME280;51107;47.652;19.016;2023-11-22T11:09:24;100221.75;;;10.91;70.20
64683;BME280;51107;47.652;19.016;2023-11-22T11:11:59;100219.81;;;10.93;71.12
64683;BME280;51107;47.652;19.016;2023-11-22T11:14:27;100221.13;;;11.07;73.31
64683;BME280;51107;47.652;19.016;2023-11-22T11:16:55;100225.31;;;10.90;71.97
64683;BME280;51107;47.652;19.016;2023-11-22T11:19:26;100233.03;;;10.82;73.21
64683;BME280;51107;47.652;19.016;2023-11-22T11:21:55;100234.69;;;10.63;72.08
64683;BME280;51107;47.652;19.016;2023-11-22T11:24:26;100244.44;;;10.22;72.87
64683;BME280;51107;47.652;19.016;2023-11-22T11:26:55;100239.53;;;10.39;72.93
64683;BME280;51107;47.652;19.016;2023-11-22T11:29:33;100254.28;;;9.99;73.86
64683;BME280;51107;47.652;19.016;2023-11-22T11:32:03;100249.19;;;9.88;74.89
64683;BME280;51107;47.652;19.016;2023-11-22T11:34:31;100246.44;;;9.79;75.01
64683;BME280;51107;47.652;19.016;2023-11-22T11:36:59;100258.94;;;10.05;73.42
64683;BME280;51107;47.652;19.016;2023-11-22T11:39:28;100268.31;;;9.67;76.79
64683;BME280;51107;47.652;19.016;2023-11-22T11:42:10;100269.38;;;9.55;77.14
64683;BME280;51107;47.652;19.016;2023-11-22T11:47:25;100273.50;;;9.26;77.28
64683;BME280;51107;47.652;19.016;2023-11-22T11:49:55;100275.50;;;9.23;78.17
64683;BME280;51107;47.652;19.016;2023-11-22T11:52:27;100271.09;;;9.13;77.82
64683;BME280;51107;47.652;19.016;2023-11-22T11:54:55;100266.00;;;9.33;77.48
64683;BME280;51107;47.652;19.016;2023-11-22T11:57:24;100270.94;;;9.05;78.85
64683;BME280;51107;47.652;19.016;2023-11-22T11:59:52;100278.09;;;8.92;79.04
64683;BME280;51107;47.652;19.016;2023-11-22T12:02:23;100276.50;;;9.00;78.30
64683;BME280;51107;47.652;19.016;2023-11-22T12:04:51;100278.09;;;8.92;79.34
64683;BME280;51107;47.652;19.016;2023-11-22T12:07:20;100279.28;;;8.88;79.79
64683;BME280;51107;47.652;19.016;2023-11-22T12:09:48;100279.09;;;8.79;80.08
64683;BME280;51107;47.652;19.016;2023-11-22T12:12:16;100271.94;;;8.72;81.62
64683;BME280;51107;47.652;19.016;2023-11-22T12:14:44;100277.69;;;8.75;81.41
64683;BME280;51107;47.652;19.016;2023-11-22T12:17:13;100277.31;;;8.80;80.42
64683;BME280;51107;47.652;19.016;2023-11-22T12:19:42;100279.16;;;8.89;81.08
64683;BME280;51107;47.652;19.016;2023-11-22T12:22:10;100286.97;;;8.68;80.82
64683;BME280;51107;47.652;19.016;2023-11-22T12:24:40;100286.12;;;8.67;81.77
64683;BME280;51107;47.652;19.016;2023-11-22T12:27:09;100289.16;;;8.73;81.81
64683;BME280;51107;47.652;19.016;2023-11-22T12:29:39;100287.31;;;8.63;81.83
64683;BME280;51107;47.652;19.016;2023-11-22T12:32:10;100289.09;;;8.63;82.61
64683;BME280;51107;47.652;19.016;2023-11-22T12:34:39;100295.63;;;8.57;83.38
64683;BME280;51107;47.652;19.016;2023-11-22T12:37:07;100291.94;;;8.60;83.41
64683;BME280;51107;47.652;19.016;2023-11-22T12:39:36;100295.31;;;8.72;82.68
64683;BME280;51107;47.652;19.016;2023-11-22T12:42:05;100297.69;;;8.63;84.12
64683;BME280;51107;47.652;19.016;2023-11-22T12:44:51;100311.19;;;8.57;83.06
64683;BME280;51107;47.652;19.016;2023-11-22T12:47:34;100319.41;;;8.74;82.76
64683;BME280;51107;47.652;19.016;2023-11-22T12:50:04;100315.53;;;8.68;82.76
64683;BME280;51107;47.652;19.016;2023-11-22T12:52:33;100329.94;;;8.61;83.84
64683;BME280;51107;47.652;19.016;2023-11-22T12:55:01;100334.19;;;8.62;82.52
64683;BME280;51107;47.652;19.016;2023-11-22T12:57:30;100338.03;;;8.46;84.56
64683;BME280;51107;47.652;19.016;2023-11-22T12:59:58;100332.72;;;8.48;84.18
64683;BME280;51107;47.652;19.016;2023-11-22T13:02:27;100343.81;;;8.50;82.93
64683;BME280;51107;47.652;19.016;2023-11-22T13:04:58;100344.25;;;8.44;84.63